Time;durP1;ratioP1;P1;durP2;ratioP2;P2;SDS_P1;SDS_P2;PMS_P1;PMS_P2;Temp;Humidity;BMP_temperature;BMP_pressure;BME280_temperature;BME280_humidity;BME280_pressure;Samples;Min_cycle;Max_cycle;Signal;HPM_P1;HPM_P2
2022/11/10 00:00:16;;;;;;;2.13;0.73;;;14.10;78.30;;;;;;5035428;28;20811;-73
2022/11/10 00:03:06;;;;;;;1.30;0.70;;;14.10;78.20;;;;;;5030705;28;20577;-73
2022/11/10 00:05:53;;;;;;;2.87;0.83;;;14.10;78.30;;;;;;5026525;28;20574;-73
2022/11/10 00:08:40;;;;;;;1.83;1.00;;;14.10;78.30;;;;;;5035231;28;20482;-73
2022/11/10 00:11:27;;;;;;;1.90;0.90;;;14.10;78.30;;;;;;5038017;28;20467;-73
2022/11/10 00:17:18;;;;;;;2.30;0.90;;;14.10;78.30;;;;;;5028856;28;20440;-73
2022/11/10 00:20:09;;;;;;;2.63;0.97;;;14.10;78.30;;;;;;5031976;28;20451;-73
2022/11/10 00:22:56;;;;;;;1.73;0.60;;;14.00;78.20;;;;;;5025834;28;20510;-73
2022/11/10 00:25:43;;;;;;;2.10;1.20;;;14.10;78.40;;;;;;5030613;28;20894;-73
2022/11/10 00:28:31;;;;;;;1.73;1.00;;;14.10;78.40;;;;;;5045186;28;20431;-73
2022/11/10 00:31:18;;;;;;;4.57;0.97;;;14.00;78.30;;;;;;5037957;28;20476;-73
2022/11/10 00:34:05;;;;;;;1.37;1.03;;;14.10;78.40;;;;;;5027120;28;20424;-73
2022/11/10 00:36:54;;;;;;;1.20;0.70;;;14.00;78.20;;;;;;5028675;28;21252;-73
2022/11/10 00:39:41;;;;;;;2.33;1.30;;;14.10;78.40;;;;;;5031183;28;20467;-73
2022/11/10 00:42:28;;;;;;;2.00;0.80;;;14.00;78.30;;;;;;5038329;28;20423;-70
2022/11/10 00:45:15;;;;;;;3.63;1.00;;;14.00;78.30;;;;;;5037069;28;20467;-70
2022/11/10 00:48:02;;;;;;;6.47;1.27;;;14.00;78.30;;;;;;5015199;28;21168;-70
2022/11/10 00:50:51;;;;;;;2.90;1.23;;;14.00;78.30;;;;;;5027339;28;20467;-70
2022/11/10 00:53:39;;;;;;;2.60;1.00;;;14.00;78.40;;;;;;5017099;28;20460;-70
2022/11/10 00:56:26;;;;;;;1.53;1.17;;;14.00;78.50;;;;;;5037370;28;20451;-70
2022/11/10 00:59:13;;;;;;;3.97;1.07;;;14.00;78.40;;;;;;5039612;28;21000;-70
2022/11/10 01:02:00;;;;;;;3.00;0.83;;;14.00;78.50;;;;;;5028229;28;20776;-70
2022/11/10 01:04:47;;;;;;;1.00;0.90;;;14.00;78.50;;;;;;5035315;28;20471;-70
2022/11/10 01:07:34;;;;;;;3.30;1.00;;;14.00;78.50;;;;;;5030076;28;20522;-70
2022/11/10 01:10:23;;;;;;;1.20;0.70;;;14.00;78.40;;;;;;5032379;28;20477;-70
2022/11/10 01:13:10;;;;;;;3.57;1.10;;;14.00;78.50;;;;;;5027955;28;20874;-70
2022/11/10 01:15:57;;;;;;;1.83;1.23;;;14.00;78.40;;;;;;5028420;28;20574;-70
2022/11/10 01:18:44;;;;;;;1.67;1.20;;;14.00;78.40;;;;;;5019405;28;20451;-70
2022/11/10 01:21:31;;;;;;;1.67;1.20;;;14.00;78.50;;;;;;5037656;28;20473;-70
2022/11/10 01:24:21;;;;;;;1.97;1.00;;;14.00;78.40;;;;;;5029262;28;20526;-70
2022/11/10 01:27:10;;;;;;;1.03;0.60;;;14.00;78.50;;;;;;5039625;28;20532;-70
2022/11/10 01:29:57;;;;;;;5.47;1.23;;;14.00;78.40;;;;;;5035421;28;20467;-70
2022/11/10 01:32:44;;;;;;;4.23;1.63;;;14.00;78.50;;;;;;5017312;28;20523;-70
2022/11/10 01:35:31;;;;;;;1.73;1.33;;;14.00;78.50;;;;;;5019936;28;20468;-70
2022/11/10 01:38:18;;;;;;;1.97;1.10;;;14.00;78.40;;;;;;5032747;28;20451;-70
2022/11/10 01:41:06;;;;;;;3.33;1.00;;;14.00;78.50;;;;;;5032506;28;20465;-70
2022/11/10 01:44:17;;;;;;;2.13;1.13;;;14.00;78.40;;;;;;5023482;28;20446;-70
2022/11/10 01:47:04;;;;;;;1.17;0.83;;;14.00;78.50;;;;;;5030932;28;20476;-70
2022/11/10 01:49:51;;;;;;;3.83;1.03;;;14.00;78.50;;;;;;5031363;28;20550;-70
2022/11/10 01:52:39;;;;;;;1.07;0.90;;;14.00;78.60;;;;;;5046317;28;20470;-70
2022/11/10 01:55:30;;;;;;;5.33;1.90;;;14.00;78.50;;;;;;5032997;28;20468;-70
2022/11/10 01:58:21;;;;;;;4.07;0.90;;;14.00;78.50;;;;;;5027218;28;20503;-70
2022/11/10 02:01:10;;;;;;;1.33;1.00;;;14.00;78.60;;;;;;5039769;28;20490;-70
2022/11/10 02:04:00;;;;;;;3.40;1.33;;;14.00;78.70;;;;;;5035207;28;20505;-70
2022/11/10 02:06:49;;;;;;;3.53;0.87;;;14.00;78.60;;;;;;5039366;28;20437;-70
2022/11/10 02:09:37;;;;;;;1.90;0.77;;;14.00;78.60;;;;;;5028164;28;20560;-70
2022/11/10 02:12:36;;;;;;;2.97;1.00;;;14.00;78.60;;;;;;5042203;28;20460;-70
2022/11/10 02:15:23;;;;;;;2.37;0.73;;;14.00;78.60;;;;;;5041448;28;20459;-70
2022/11/10 02:18:12;;;;;;;4.07;1.00;;;14.00;78.70;;;;;;5038312;28;20444;-70
2022/11/10 02:21:04;;;;;;;0.70;0.60;;;14.00;78.70;;;;;;5032936;28;20455;-70
2022/11/10 02:23:53;;;;;;;4.00;1.13;;;13.90;78.60;;;;;;5038618;28;20968;-70
2022/11/10 02:26:45;;;;;;;4.00;0.90;;;13.90;78.60;;;;;;5039223;28;20479;-70
2022/11/10 02:29:33;;;;;;;1.83;0.97;;;13.90;78.60;;;;;;5032830;28;20463;-70
2022/11/10 02:32:20;;;;;;;3.67;1.30;;;13.90;78.60;;;;;;5032467;28;20853;-70
2022/11/10 02:35:08;;;;;;;2.73;0.83;;;13.90;78.60;;;;;;5031687;28;20544;-70
2022/11/10 02:37:57;;;;;;;3.10;1.10;;;13.90;78.60;;;;;;5031915;28;20447;-70
2022/11/10 02:40:44;;;;;;;0.90;0.80;;;13.90;78.60;;;;;;5017931;28;20487;-70
2022/11/10 02:43:31;;;;;;;1.33;0.70;;;13.90;78.60;;;;;;5038573;28;20481;-70
2022/11/10 02:46:18;;;;;;;3.50;0.90;;;13.90;78.60;;;;;;5029641;28;20692;-70
2022/11/10 02:49:06;;;;;;;5.70;1.20;;;13.90;78.60;;;;;;5042277;28;20498;-70
2022/11/10 02:51:54;;;;;;;3.30;1.40;;;13.90;78.70;;;;;;5025227;28;20811;-70
2022/11/10 02:54:43;;;;;;;3.50;1.27;;;13.90;78.70;;;;;;5054045;22;20475;-51
2022/11/10 02:57:30;;;;;;;1.00;0.67;;;13.90;78.70;;;;;;5033271;28;20446;-51
2022/11/10 03:00:18;;;;;;;4.20;0.80;;;13.90;78.70;;;;;;5030447;28;20487;-51
2022/11/10 03:03:06;;;;;;;1.20;1.10;;;13.90;78.70;;;;;;5019320;28;20833;-51
2022/11/10 03:05:54;;;;;;;3.07;0.87;;;13.90;78.70;;;;;;5032283;28;20473;-51
2022/11/10 03:08:42;;;;;;;8.83;1.77;;;13.90;78.80;;;;;;5030479;28;20452;-50
2022/11/10 03:11:30;;;;;;;1.90;0.97;;;13.90;78.70;;;;;;5032456;28;20844;-51
2022/11/10 03:14:18;;;;;;;2.17;1.07;;;13.90;78.90;;;;;;5032372;28;20506;-49
2022/11/10 03:17:05;;;;;;;1.40;0.70;;;13.90;78.90;;;;;;5031807;28;20444;-51
2022/11/10 03:19:52;;;;;;;2.53;1.10;;;13.90;78.80;;;;;;5026135;28;20605;-50
2022/11/10 03:22:41;;;;;;;2.50;1.20;;;13.90;78.90;;;;;;5031655;28;20978;-51
2022/11/10 03:25:28;;;;;;;1.80;0.80;;;13.90;78.90;;;;;;5030178;28;20471;-50
2022/11/10 03:28:17;;;;;;;1.30;0.73;;;13.90;78.80;;;;;;5032312;28;20976;-51
2022/11/10 03:31:04;;;;;;;1.63;0.90;;;13.90;78.90;;;;;;5025853;28;20494;-51
2022/11/10 03:33:51;;;;;;;3.03;1.00;;;13.90;78.80;;;;;;5017226;28;20474;-50
2022/11/10 03:36:38;;;;;;;1.10;0.80;;;13.90;78.80;;;;;;5031947;28;21056;-52
2022/11/10 03:39:25;;;;;;;1.93;0.90;;;13.90;78.90;;;;;;5027078;28;20455;-51
2022/11/10 03:42:14;;;;;;;1.23;0.90;;;13.90;78.90;;;;;;5031724;28;20454;-51
2022/11/10 03:45:03;;;;;;;4.33;1.20;;;13.80;78.80;;;;;;5024145;28;20554;-51
2022/11/10 03:47:50;;;;;;;5.83;1.50;;;13.80;78.70;;;;;;5023905;28;20799;-51
2022/11/10 03:50:38;;;;;;;2.27;0.90;;;13.80;78.90;;;;;;5030939;28;20476;-49
2022/11/10 03:53:26;;;;;;;3.27;1.17;;;13.80;78.90;;;;;;5027021;28;20468;-51
2022/11/10 03:56:13;;;;;;;2.00;0.90;;;13.80;78.80;;;;;;5030845;28;20476;-51
2022/11/10 03:59:00;;;;;;;4.57;1.10;;;13.80;78.70;;;;;;5031706;28;20935;-49
2022/11/10 04:01:48;;;;;;;2.40;1.00;;;13.80;78.80;;;;;;5024559;28;20468;-51
2022/11/10 04:10:45;;;;;;;3.50;1.30;;;13.80;78.90;;;;;;5023148;28;20467;-50
2022/11/10 04:16:38;;;;;;;1.10;0.60;;;13.80;78.90;;;;;;5025831;28;20498;-51
2022/11/10 04:19:27;;;;;;;5.60;1.23;;;13.80;78.80;;;;;;5031689;28;20454;-51
2022/11/10 04:23:25;;;;;;;2.63;1.00;;;13.80;78.80;;;;;;5030963;28;21204;-51
2022/11/10 04:25:21;;;;;;;1.83;0.80;;;13.80;78.90;;;;;;5027874;28;20464;-51
2022/11/10 04:28:09;;;;;;;2.53;1.00;;;13.80;78.90;;;;;;5031459;28;20548;-49
2022/11/10 04:30:56;;;;;;;4.50;1.00;;;13.80;78.90;;;;;;5023976;28;20841;-52
2022/11/10 04:33:45;;;;;;;6.50;1.70;;;13.80;78.90;;;;;;5015394;28;20475;-50
2022/11/10 04:36:35;;;;;;;4.93;0.90;;;13.80;78.90;;;;;;5030788;28;20463;-50
2022/11/10 04:39:23;;;;;;;3.80;1.03;;;13.80;78.90;;;;;;5029332;28;20448;-51
2022/11/10 04:42:10;;;;;;;6.93;1.20;;;13.80;79.00;;;;;;5030567;28;20868;-50
2022/11/10 04:44:57;;;;;;;3.30;1.03;;;13.80;79.00;;;;;;5024762;28;20602;-51
2022/11/10 04:47:45;;;;;;;3.50;0.87;;;13.80;78.90;;;;;;5028896;28;20526;-51
2022/11/10 04:50:32;;;;;;;6.20;2.37;;;13.80;78.90;;;;;;5030151;28;20471;-51
2022/11/10 04:53:21;;;;;;;3.27;0.93;;;13.80;78.90;;;;;;5026277;28;20476;-52
2022/11/10 04:56:12;;;;;;;1.53;0.83;;;13.80;79.00;;;;;;5027316;28;20472;-50
2022/11/10 04:58:59;;;;;;;1.33;0.90;;;13.70;78.90;;;;;;5024685;28;20734;-52
2022/11/10 05:01:46;;;;;;;2.40;0.83;;;13.70;78.90;;;;;;5029516;28;20455;-50
2022/11/10 05:04:33;;;;;;;5.20;0.90;;;13.70;78.90;;;;;;5028055;28;20440;-51
2022/11/10 05:07:20;;;;;;;4.63;1.07;;;13.70;78.90;;;;;;5030521;28;20950;-50
2022/11/10 05:10:10;;;;;;;2.10;1.17;;;13.70;79.00;;;;;;5024820;28;20832;-50
2022/11/10 05:12:58;;;;;;;2.00;0.97;;;13.70;79.00;;;;;;5030478;28;20456;-52
2022/11/10 05:15:48;;;;;;;6.73;0.97;;;13.70;78.90;;;;;;5021179;28;20455;-52
2022/11/10 05:18:36;;;;;;;4.93;1.53;;;13.70;79.00;;;;;;5028132;28;20826;-50
2022/11/10 05:21:23;;;;;;;2.67;1.30;;;13.70;79.00;;;;;;5026991;28;20660;-49
2022/11/10 05:24:10;;;;;;;3.73;0.73;;;13.70;79.20;;;;;;5026001;28;20559;-50
2022/11/10 05:26:59;;;;;;;3.93;0.87;;;13.70;79.00;;;;;;5018878;28;20962;-51
2022/11/10 05:29:47;;;;;;;5.10;0.87;;;13.70;78.90;;;;;;5022362;28;20794;-51
2022/11/10 05:32:34;;;;;;;2.60;0.80;;;13.70;78.90;;;;;;5024796;28;20983;-51
2022/11/10 05:35:21;;;;;;;3.30;1.00;;;13.70;78.90;;;;;;5028256;28;20475;-51
2022/11/10 05:38:08;;;;;;;0.80;0.77;;;13.70;78.90;;;;;;5022677;28;20451;-51
2022/11/10 05:40:56;;;;;;;2.33;0.83;;;13.70;78.90;;;;;;5029143;28;20522;-50
2022/11/10 05:43:44;;;;;;;5.20;1.00;;;13.70;78.90;;;;;;5029396;28;20534;-51
2022/11/10 05:46:31;;;;;;;1.47;0.80;;;13.70;78.90;;;;;;5027294;28;20510;-51
2022/11/10 05:49:19;;;;;;;2.10;0.83;;;13.70;78.90;;;;;;5030179;28;20435;-51
2022/11/10 05:52:06;;;;;;;0.83;0.60;;;13.70;78.90;;;;;;5030450;28;20851;-50
2022/11/10 05:54:54;;;;;;;1.80;0.90;;;13.70;78.80;;;;;;5024517;28;20546;-50
2022/11/10 05:57:43;;;;;;;3.60;0.90;;;13.70;78.90;;;;;;5030452;28;20439;-52
2022/11/10 06:00:31;;;;;;;1.93;0.77;;;13.70;78.90;;;;;;5027694;28;20468;-52
2022/11/10 06:03:19;;;;;;;2.10;1.00;;;13.70;78.90;;;;;;5026480;28;20476;-51
2022/11/10 06:06:08;;;;;;;3.37;1.50;;;13.70;78.90;;;;;;5029409;28;21001;-51
2022/11/10 06:08:55;;;;;;;4.53;0.90;;;13.70;78.90;;;;;;5022105;28;20448;-52
2022/11/10 06:11:42;;;;;;;3.53;0.90;;;13.70;78.90;;;;;;5020985;28;20460;-51
2022/11/10 06:14:30;;;;;;;3.07;1.83;;;13.70;78.90;;;;;;5029952;28;20467;-50
2022/11/10 06:17:18;;;;;;;1.83;1.30;;;13.70;78.90;;;;;;5027923;28;20464;-51
2022/11/10 06:20:06;;;;;;;3.20;1.00;;;13.70;78.90;;;;;;5024889;28;20451;-51
2022/11/10 06:23:01;;;;;;;4.87;1.10;;;13.60;78.80;;;;;;5019164;28;20464;-51
2022/11/10 06:25:48;;;;;;;1.60;0.90;;;13.60;78.80;;;;;;5021795;28;20464;-52
2022/11/10 06:28:36;;;;;;;1.83;0.73;;;13.60;78.80;;;;;;5030365;28;20440;-51
2022/11/10 06:31:23;;;;;;;2.63;1.30;;;13.60;78.90;;;;;;5030022;28;20452;-51
2022/11/10 06:34:12;;;;;;;2.57;0.73;;;13.60;78.90;;;;;;5030779;28;20464;-51
2022/11/10 06:36:59;;;;;;;3.13;1.10;;;13.60;78.80;;;;;;5028351;28;20535;-50
2022/11/10 06:39:47;;;;;;;1.60;1.17;;;13.60;78.90;;;;;;5024246;28;20583;-50
2022/11/10 06:42:35;;;;;;;2.30;1.27;;;13.60;78.90;;;;;;5033178;28;20460;-51
2022/11/10 06:45:23;;;;;;;3.63;1.00;;;13.60;78.90;;;;;;5032603;28;20472;-50
2022/11/10 06:48:13;;;;;;;6.10;1.40;;;13.60;79.00;;;;;;5029462;28;20474;-49
2022/11/10 06:51:02;;;;;;;2.60;1.00;;;13.60;78.90;;;;;;5032009;28;21445;-52
2022/11/10 06:53:49;;;;;;;5.07;0.90;;;13.60;78.90;;;;;;5023301;28;20698;-51
2022/11/10 06:56:39;;;;;;;4.00;1.10;;;13.60;78.90;;;;;;5036257;28;20460;-51
2022/11/10 06:59:26;;;;;;;6.67;0.80;;;13.60;79.00;;;;;;5036730;28;20452;-50
2022/11/10 07:02:14;;;;;;;4.10;0.83;;;13.60;78.90;;;;;;5037017;28;20462;-51
2022/11/10 07:05:02;;;;;;;2.57;1.50;;;13.60;79.00;;;;;;5030336;28;21032;-49
2022/11/10 07:07:51;;;;;;;2.17;1.00;;;13.60;78.90;;;;;;5035967;28;20463;-50
2022/11/10 07:10:38;;;;;;;2.70;1.00;;;13.60;79.10;;;;;;5035270;28;20480;-51
2022/11/10 07:13:26;;;;;;;2.67;1.17;;;13.60;79.00;;;;;;5037016;28;20909;-49
2022/11/10 07:16:13;;;;;;;1.70;0.90;;;13.60;79.10;;;;;;5033696;28;20460;-49
2022/11/10 07:19:00;;;;;;;3.70;0.90;;;13.60;79.00;;;;;;5025513;28;20959;-51
2022/11/10 07:21:47;;;;;;;5.43;1.10;;;13.60;79.10;;;;;;5020852;28;20507;-51
2022/11/10 07:24:36;;;;;;;3.00;1.20;;;13.60;79.20;;;;;;5030170;28;20431;-50
2022/11/10 07:27:24;;;;;;;3.47;0.97;;;13.50;79.10;;;;;;5033056;28;20625;-50
2022/11/10 07:30:12;;;;;;;1.90;1.23;;;13.50;79.10;;;;;;5031446;28;20507;-50
2022/11/10 07:33:01;;;;;;;2.53;1.00;;;13.50;79.20;;;;;;5026621;28;20831;-51
2022/11/10 07:35:54;;;;;;;1.10;0.60;;;13.60;79.20;;;;;;5024904;28;20833;-50
2022/11/10 07:38:41;;;;;;;4.17;1.07;;;13.50;79.10;;;;;;5028707;28;20452;-49
2022/11/10 07:41:30;;;;;;;2.50;2.30;;;13.50;79.20;;;;;;5031944;28;20510;-50
2022/11/10 07:44:17;;;;;;;2.63;0.70;;;13.50;79.20;;;;;;5031753;28;20428;-50
2022/11/10 07:47:04;;;;;;;3.40;1.30;;;13.50;79.30;;;;;;5031863;28;20945;-50
2022/11/10 07:49:52;;;;;;;2.60;0.70;;;13.50;79.10;;;;;;5026467;28;20471;-49
2022/11/10 07:52:40;;;;;;;1.83;1.13;;;13.50;79.20;;;;;;5032021;28;20982;-51
2022/11/10 07:55:27;;;;;;;1.30;0.80;;;13.50;79.20;;;;;;5028819;28;20476;-51
2022/11/10 07:58:18;;;;;;;6.10;1.47;;;13.50;79.20;;;;;;5030865;28;20459;-50
2022/11/10 08:01:05;;;;;;;3.10;0.80;;;13.50;79.10;;;;;;5022343;28;20464;-50
2022/11/10 08:03:52;;;;;;;2.33;0.97;;;13.50;79.20;;;;;;5019113;28;20453;-51
2022/11/10 08:06:40;;;;;;;2.50;1.10;;;13.50;79.40;;;;;;5031883;28;20600;-52
2022/11/10 08:09:31;;;;;;;4.13;1.37;;;13.50;79.40;;;;;;5013441;28;20471;-52
2022/11/10 08:12:18;;;;;;;2.23;0.80;;;13.50;79.30;;;;;;5023691;28;20753;-52
2022/11/10 08:15:09;;;;;;;2.50;1.03;;;13.50;79.10;;;;;;5026114;28;20468;-51
2022/11/10 08:17:59;;;;;;;1.90;0.70;;;13.50;79.20;;;;;;5030237;28;20444;-50
2022/11/10 08:20:49;;;;;;;1.63;1.13;;;13.50;79.00;;;;;;5026192;28;20550;-50
2022/11/10 08:23:37;;;;;;;2.70;1.10;;;13.50;79.00;;;;;;5014180;28;20468;-49
2022/11/10 08:26:25;;;;;;;1.87;0.60;;;13.50;78.90;;;;;;5027824;28;20444;-52
2022/11/10 08:29:12;;;;;;;2.07;0.97;;;13.60;78.90;;;;;;5027575;28;20436;-50
2022/11/10 08:32:00;;;;;;;2.60;0.80;;;13.50;78.80;;;;;;5018068;28;20472;-51
2022/11/10 08:34:47;;;;;;;3.13;1.13;;;13.50;78.70;;;;;;5013870;28;20472;-51
2022/11/10 08:37:34;;;;;;;2.70;0.70;;;13.60;78.70;;;;;;5021494;28;20428;-50
2022/11/10 08:40:22;;;;;;;0.80;0.60;;;13.60;78.70;;;;;;5024943;28;20476;-50
2022/11/10 08:43:10;;;;;;;1.30;0.80;;;13.60;78.60;;;;;;5012299;28;20805;-51
2022/11/10 08:45:57;;;;;;;1.50;0.93;;;13.60;78.50;;;;;;5016015;28;20461;-50
2022/11/10 08:48:45;;;;;;;1.50;0.80;;;13.60;78.60;;;;;;5022853;28;20959;-50
2022/11/10 08:51:32;;;;;;;3.10;0.93;;;13.60;78.50;;;;;;5031134;28;20460;-50
2022/11/10 08:54:24;;;;;;;0.97;0.70;;;13.60;78.40;;;;;;5048724;23;20467;-48
2022/11/10 08:57:12;;;;;;;2.20;0.70;;;13.60;78.40;;;;;;5051415;28;20454;-48
2022/11/10 08:59:59;;;;;;;0.70;0.70;;;13.60;78.50;;;;;;5036534;28;20440;-49
2022/11/10 09:02:47;;;;;;;2.80;0.80;;;13.60;78.40;;;;;;5035278;28;20985;-50
2022/11/10 09:05:36;;;;;;;2.17;0.80;;;13.60;78.40;;;;;;5038972;28;20589;-50
2022/11/10 09:08:24;;;;;;;3.80;1.10;;;13.60;78.50;;;;;;5027136;28;20452;-50
2022/11/10 09:11:11;;;;;;;1.80;0.70;;;13.60;78.40;;;;;;5043128;28;20471;-50
2022/11/10 09:13:59;;;;;;;3.17;0.73;;;13.60;78.30;;;;;;5035837;28;20447;-49
2022/11/10 09:16:47;;;;;;;1.90;0.73;;;13.60;78.30;;;;;;5033380;28;20486;-47
2022/11/10 09:19:35;;;;;;;2.07;1.30;;;13.60;78.30;;;;;;5046633;28;20423;-50
2022/11/10 09:22:25;;;;;;;1.23;0.70;;;13.60;78.40;;;;;;5031197;28;20458;-49
2022/11/10 09:25:12;;;;;;;2.13;1.00;;;13.60;78.30;;;;;;5049889;28;20439;-50
2022/11/10 09:27:59;;;;;;;4.40;0.70;;;13.70;78.40;;;;;;5045139;28;20435;-49
2022/11/10 09:30:47;;;;;;;1.83;1.10;;;13.60;78.20;;;;;;5029742;28;20468;-49
2022/11/10 09:33:35;;;;;;;1.87;0.87;;;13.60;78.10;;;;;;5039237;28;20463;-50
2022/11/10 09:36:22;;;;;;;1.37;0.70;;;13.60;78.30;;;;;;5037727;28;20551;-49
2022/11/10 09:39:11;;;;;;;1.73;0.63;;;13.60;78.20;;;;;;5044728;28;20435;-49
2022/11/10 09:41:59;;;;;;;2.00;0.93;;;13.70;78.40;;;;;;5036476;28;20452;-50
2022/11/10 09:44:53;;;;;;;2.63;1.00;;;13.70;78.40;;;;;;5038781;28;20912;-49
2022/11/10 09:47:48;;;;;;;6.27;1.00;;;13.70;78.60;;;;;;5040396;28;20431;-49
2022/11/10 09:50:49;;;;;;;1.43;0.70;;;13.70;78.50;;;;;;5033343;28;20577;-49
2022/11/10 09:53:44;;;;;;;2.93;0.90;;;13.70;78.40;;;;;;5045862;28;20494;-49
2022/11/10 09:56:36;;;;;;;3.73;1.27;;;13.70;78.40;;;;;;5048256;28;20578;-49
2022/11/10 09:59:28;;;;;;;1.60;0.90;;;13.70;78.40;;;;;;5040097;28;20428;-50
2022/11/10 10:02:27;;;;;;;1.60;0.70;;;13.70;78.40;;;;;;5042782;28;20480;-48
2022/11/10 10:05:50;;;;;;;2.60;0.90;;;13.70;78.40;;;;;;5033100;28;21136;-48
2022/11/10 10:08:49;;;;;;;2.20;1.00;;;13.70;78.40;;;;;;5038901;28;20444;-50
2022/11/10 10:11:48;;;;;;;1.37;0.90;;;13.70;78.40;;;;;;5038571;28;21045;-50
2022/11/10 10:14:49;;;;;;;4.20;1.23;;;13.70;78.40;;;;;;5040828;28;20441;-49
2022/11/10 10:17:42;;;;;;;1.90;0.70;;;13.60;78.30;;;;;;5032065;28;20489;-49
2022/11/10 10:20:44;;;;;;;2.50;0.80;;;13.70;78.40;;;;;;5045296;28;20559;-49
2022/11/10 10:23:35;;;;;;;2.90;0.80;;;13.60;78.20;;;;;;5040723;28;20546;-50
2022/11/10 10:26:49;;;;;;;3.10;0.63;;;13.60;78.20;;;;;;5053342;28;20455;-49
2022/11/10 10:29:40;;;;;;;1.27;0.80;;;13.70;78.40;;;;;;5052760;28;20439;-49
2022/11/10 10:32:27;;;;;;;1.10;0.60;;;13.60;79.50;;;;;;5043227;28;20470;-49
2022/11/10 10:35:15;;;;;;;2.03;0.80;;;13.60;78.40;;;;;;5047196;28;20439;-49
2022/11/10 10:38:04;;;;;;;4.20;1.00;;;13.60;79.50;;;;;;5041446;28;20443;-49
2022/11/10 10:40:53;;;;;;;2.70;0.70;;;13.60;78.40;;;;;;5038022;28;20474;-50
2022/11/10 10:43:46;;;;;;;1.53;0.63;;;13.60;78.30;;;;;;5051949;28;20898;-50
2022/11/10 10:46:45;;;;;;;1.13;0.93;;;13.60;78.30;;;;;;5042980;28;20478;-49
2022/11/10 10:49:33;;;;;;;1.30;0.80;;;13.60;78.30;;;;;;5050804;28;20446;-49
2022/11/10 10:52:23;;;;;;;1.57;0.57;;;13.60;78.30;;;;;;5051777;28;20829;-49
2022/11/10 10:55:13;;;;;;;3.23;0.90;;;13.60;78.40;;;;;;5037723;28;20470;-50
2022/11/10 10:58:01;;;;;;;1.10;0.80;;;13.60;78.30;;;;;;5047285;28;20438;-50
2022/11/10 11:00:52;;;;;;;1.70;0.40;;;13.70;78.50;;;;;;5044385;28;20474;-50
2022/11/10 11:03:42;;;;;;;1.80;0.60;;;13.60;78.40;;;;;;5042705;28;20467;-49
2022/11/10 11:06:31;;;;;;;1.47;1.13;;;13.60;78.30;;;;;;5039047;28;20447;-50
2022/11/10 11:09:19;;;;;;;3.23;0.70;;;13.60;78.30;;;;;;5049380;28;20500;-50
2022/11/10 11:12:08;;;;;;;2.60;0.77;;;13.60;78.40;;;;;;5046520;28;20997;-49
2022/11/10 11:15:13;;;;;;;3.63;1.07;;;13.60;78.30;;;;;;5037982;28;20610;-49
2022/11/10 11:18:03;;;;;;;1.90;0.87;;;13.60;78.40;;;;;;5042342;28;20446;-50
2022/11/10 11:21:00;;;;;;;4.50;0.73;;;13.60;78.70;;;;;;5037380;28;20570;-48
2022/11/10 11:24:12;;;;;;;2.03;1.20;;;13.60;78.30;;;;;;5045505;28;20467;-50
2022/11/10 11:27:03;;;;;;;2.70;1.20;;;13.60;79.50;;;;;;5039634;28;20445;-50
2022/11/10 11:30:12;;;;;;;1.47;0.70;;;13.60;78.40;;;;;;5042329;28;20946;-49
2022/11/10 11:33:44;;;;;;;2.17;0.80;;;13.60;78.30;;;;;;5036217;28;20904;-49
2022/11/10 11:36:56;;;;;;;3.17;0.97;;;13.70;78.50;;;;;;5050734;28;20470;-48
2022/11/10 11:40:00;;;;;;;4.07;0.97;;;13.60;78.50;;;;;;5043573;28;20447;-49
2022/11/10 11:42:57;;;;;;;1.90;0.63;;;13.70;78.60;;;;;;5048713;28;20459;-48
2022/11/10 11:45:55;;;;;;;3.87;0.90;;;13.60;78.50;;;;;;5040344;28;20474;-49
2022/11/10 11:49:02;;;;;;;3.77;1.03;;;13.60;78.50;;;;;;5051765;28;20443;-49
2022/11/10 11:51:57;;;;;;;2.50;0.90;;;13.60;78.50;;;;;;5045018;28;20458;-49
2022/11/10 11:55:03;;;;;;;2.70;0.80;;;13.60;78.50;;;;;;5042732;28;20456;-49
2022/11/10 11:58:10;;;;;;;2.13;0.80;;;13.60;78.50;;;;;;5044960;28;20491;-49
2022/11/10 12:01:09;;;;;;;1.73;0.70;;;13.60;78.50;;;;;;5041295;28;20501;-49
2022/11/10 12:04:35;;;;;;;4.80;0.93;;;13.60;78.60;;;;;;5036307;28;20798;-49
2022/11/10 12:07:41;;;;;;;1.17;0.70;;;13.60;78.50;;;;;;5046995;28;20938;-49
2022/11/10 12:10:41;;;;;;;1.80;0.80;;;13.60;78.60;;;;;;5040606;28;20467;-49
2022/11/10 12:13:42;;;;;;;1.33;1.03;;;13.60;78.60;;;;;;5038918;28;20468;-50
2022/11/10 12:16:32;;;;;;;2.47;0.73;;;13.60;78.60;;;;;;5050042;28;20806;-47
2022/11/10 12:23:37;;;;;;;1.03;0.70;;;13.60;78.60;;;;;;5028962;28;20540;-50
2022/11/10 12:26:40;;;;;;;1.50;0.87;;;13.60;79.80;;;;;;5037931;28;20460;-50
2022/11/10 12:29:32;;;;;;;2.57;0.70;;;13.60;78.60;;;;;;5043169;28;20435;-50
2022/11/10 12:32:28;;;;;;;2.07;1.00;;;13.60;78.70;;;;;;5048232;28;20493;-49
2022/11/10 12:35:31;;;;;;;4.83;0.80;;;13.60;78.50;;;;;;5044822;28;20581;-49
2022/11/10 12:39:06;;;;;;;1.43;0.70;;;13.60;78.50;;;;;;5043872;28;20451;-49
2022/11/10 12:42:08;;;;;;;1.23;0.60;;;13.70;78.70;;;;;;5041291;28;20571;-49
2022/11/10 12:45:27;;;;;;;1.67;0.60;;;13.60;78.50;;;;;;5040076;28;20528;-50
2022/11/10 12:48:47;;;;;;;1.57;0.63;;;13.60;78.70;;;;;;5043647;28;20447;-48
2022/11/10 12:52:14;;;;;;;2.40;0.80;;;13.70;78.70;;;;;;5042605;28;20565;-49
2022/11/10 12:55:16;;;;;;;0.60;0.60;;;13.60;78.60;;;;;;5031478;28;20557;-50
2022/11/10 12:58:25;;;;;;;2.00;0.50;;;13.60;78.50;;;;;;5026515;28;20468;-50
2022/11/10 13:01:16;;;;;;;0.60;0.40;;;13.60;78.50;;;;;;5047358;28;20471;-48
2022/11/10 13:04:05;;;;;;;1.80;0.63;;;13.60;78.50;;;;;;5038174;28;20439;-49
2022/11/10 13:06:56;;;;;;;2.80;0.93;;;13.60;78.50;;;;;;5043710;28;20443;-50
2022/11/10 13:09:44;;;;;;;1.43;0.60;;;13.70;80.00;;;;;;5048834;28;20446;-51
2022/11/10 13:12:34;;;;;;;1.00;0.50;;;13.60;78.50;;;;;;5043753;28;20795;-49
2022/11/10 13:15:51;;;;;;;2.40;0.53;;;13.60;78.50;;;;;;5035257;28;20474;-49
2022/11/10 13:19:01;;;;;;;3.43;0.53;;;13.60;78.30;;;;;;5049192;28;20530;-49
2022/11/10 13:22:12;;;;;;;0.77;0.70;;;13.70;78.60;;;;;;5046046;28;20485;-49
2022/11/10 13:25:36;;;;;;;1.37;0.60;;;13.70;78.50;;;;;;5044888;28;20446;-49
2022/11/10 13:29:11;;;;;;;2.07;1.00;;;13.70;78.50;;;;;;5039735;28;20446;-49
2022/11/10 13:32:22;;;;;;;1.30;0.80;;;13.70;78.60;;;;;;5035833;28;20817;-49
2022/11/10 13:35:46;;;;;;;1.23;0.80;;;13.70;78.60;;;;;;5039974;28;20439;-49
2022/11/10 13:38:42;;;;;;;0.90;0.53;;;13.70;78.60;;;;;;5041913;28;20478;-49
2022/11/10 13:41:34;;;;;;;1.60;0.80;;;13.70;78.60;;;;;;5039504;28;20459;-49
2022/11/10 13:44:25;;;;;;;1.10;0.60;;;13.70;78.60;;;;;;5039438;28;20443;-49
2022/11/10 13:47:55;;;;;;;1.43;0.60;;;13.70;78.70;;;;;;5045822;28;20439;-49
2022/11/10 13:55:07;;;;;;;1.07;0.60;;;13.70;78.70;;;;;;5031580;28;20457;-50
2022/11/10 13:58:33;;;;;;;1.17;0.70;;;13.70;78.60;;;;;;5047802;28;20455;-49
2022/11/10 14:01:46;;;;;;;1.27;0.50;;;13.70;78.60;;;;;;5048008;28;20880;-50
2022/11/10 14:04:43;;;;;;;2.60;0.80;;;13.70;78.60;;;;;;5036903;28;20997;-50
2022/11/10 14:07:42;;;;;;;5.13;0.70;;;13.70;78.60;;;;;;5044473;28;20431;-49
2022/11/10 14:10:45;;;;;;;0.70;0.50;;;13.70;79.10;;;;;;5038063;28;20470;-49
2022/11/10 14:13:39;;;;;;;2.10;0.80;;;13.70;78.60;;;;;;5045697;28;20484;-50
2022/11/10 14:16:31;;;;;;;1.47;0.50;;;13.70;78.70;;;;;;5052955;28;20478;-52
2022/11/10 14:19:36;;;;;;;1.10;0.60;;;13.70;78.60;;;;;;5045405;28;20447;-50
2022/11/10 14:22:37;;;;;;;1.20;0.70;;;13.70;78.60;;;;;;5052158;28;20462;-49
2022/11/10 14:25:29;;;;;;;0.50;0.40;;;13.70;78.60;;;;;;5049755;28;20498;-49
2022/11/10 14:28:25;;;;;;;1.10;0.63;;;13.70;78.60;;;;;;5049626;28;20435;-50
2022/11/10 14:31:19;;;;;;;1.70;0.60;;;13.70;78.60;;;;;;5040908;28;20569;-49
2022/11/10 14:34:15;;;;;;;0.80;0.70;;;13.70;78.50;;;;;;5045630;28;20512;-49
2022/11/10 14:37:04;;;;;;;0.80;0.63;;;13.70;78.50;;;;;;5054146;28;20443;-49
2022/11/10 14:39:55;;;;;;;0.67;0.50;;;13.70;78.50;;;;;;5038386;28;20453;-50
2022/11/10 14:42:45;;;;;;;2.00;0.70;;;13.70;78.60;;;;;;5045433;28;20528;-49
2022/11/10 14:45:32;;;;;;;1.50;0.70;;;13.70;78.60;;;;;;5051845;28;20837;-50
2022/11/10 14:48:29;;;;;;;1.70;0.60;;;13.70;78.60;;;;;;5041519;28;21004;-49
2022/11/10 14:51:27;;;;;;;1.37;0.50;;;13.70;78.60;;;;;;5019247;28;20467;-49
2022/11/10 14:54:22;;;;;;;1.33;0.47;;;13.70;78.60;;;;;;5095931;23;20731;-73
2022/11/10 14:57:17;;;;;;;1.63;0.40;;;13.70;78.70;;;;;;5013167;28;20528;-73
2022/11/10 15:00:07;;;;;;;4.63;0.73;;;13.70;78.70;;;;;;5022192;28;20464;-74
2022/11/10 15:02:56;;;;;;;0.70;0.50;;;13.70;78.50;;;;;;4999085;28;20452;-72
2022/11/10 15:05:44;;;;;;;0.87;0.50;;;13.70;78.60;;;;;;5005129;28;20846;-74
2022/11/10 15:08:31;;;;;;;1.63;0.57;;;13.70;78.60;;;;;;5006781;28;20536;-72
2022/11/10 15:11:38;;;;;;;0.80;0.50;;;13.70;78.60;;;;;;5006375;28;21002;-74
2022/11/10 15:14:38;;;;;;;1.30;0.53;;;13.70;78.60;;;;;;5011054;28;20441;-75
2022/11/10 15:17:43;;;;;;;1.20;0.53;;;13.70;78.70;;;;;;5011963;28;20802;-73